Flight Track Log - Related Links

Times and Time Zones

All times are in EDT time to prevent confusion due to time zone crossing. See the DAL268 flight status page for this flight to view local times or setup timezone preferences in your user account.

Time Position Orientation Groundspeed Altitude Reporting Facility
EDT Latitude Longitude Course Direction KTS MPH feet Rate Location/Type
Mon 09:40:22 PM 40.6370 -73.7920 14° North 165 190  Level FlightAware ADS-B
Mon 09:40:44 PM 40.6270 -73.7710 122° Southeast 176 203 200 1,059 Climbing FlightAware ADS-B
Mon 09:40:56 PM 40.6210 -73.7610 128° Southeast 176 203 600 1,750 Climbing FlightAware ADS-B
Mon 09:41:08 PM 40.6130 -73.7530 143° Southeast 181 208 900 1,059 Climbing FlightAware ADS-B
Mon 09:41:30 PM 40.5970 -73.7380 145° Southeast 201 231 1,200 714 Climbing FlightAware ADS-B
Mon 09:41:50 PM 40.5810 -73.7220 143° Southeast 229 264 1,400 857 Climbing FlightAware ADS-B
Mon 09:42:12 PM 40.5610 -73.7040 146° Southeast 243 280 1,800 955 Climbing FlightAware ADS-B
Mon 09:42:34 PM 40.5410 -73.6850 144° Southeast 262 302 2,100 789 Climbing FlightAware ADS-B
Mon 09:42:50 PM 40.5240 -73.6690 144° Southeast 278 320 2,300 1,571 Climbing FlightAware ADS-B
Mon 09:43:16 PM 40.4990 -73.6380 137° Southeast 285 328 3,200 2,118 Climbing FlightAware ADS-B
Mon 09:43:24 PM 40.4930 -73.6250 121° Southeast 287 330 3,500 1,875 Climbing FlightAware ADS-B
Mon 09:43:32 PM 40.4890 -73.6130 114° Southeast 288 331 3,700 1,800 Climbing FlightAware ADS-B
Mon 09:43:44 PM 40.4860 -73.5920 101° East 289 333 4,100 2,100 Climbing FlightAware ADS-B
Mon 09:44:12 PM 40.4970 -73.5460 73° East 289 333 5,100 2,250 Climbing FlightAware ADS-B
Mon 09:44:32 PM 40.5120 -73.5160 57° Northeast 292 336 5,900 2,400 Climbing FlightAware ADS-B
Mon 09:44:52 PM 40.5270 -73.4850 58° Northeast 295 339 6,700 2,143 Climbing FlightAware ADS-B
Mon 09:45:00 PM 40.5320 -73.4720 63° Northeast 300 345 6,900 1,765 Climbing FlightAware ADS-B
Mon 09:45:09 PM 40.5350 -73.4580 74° East 304 350 7,200 2,118 Climbing FlightAware ADS-B
Mon 09:45:17 PM 40.5370 -73.4430 80° East 306 352 7,500 2,129 Climbing FlightAware ADS-B
Mon 09:45:40 PM 40.5330 -73.4010 97° East 310 357 8,300 2,129 Climbing FlightAware ADS-B
Mon 09:45:48 PM 40.5279 -73.3849 113° Southeast 314 361 8,600 1,781 Climbing FlightAware ADS-B (KSNC)
Mon 09:46:44 PM 40.4940 -73.2890 115° Southeast 330 380 10,200 1,579 Climbing FlightAware ADS-B
Mon 09:47:04 PM 40.4809 -73.2494 114° Southeast 338 389 10,600 1,019 Climbing FlightAware ADS-B (KSNC)
Mon 09:47:37 PM 40.4584 -73.1839 114° Southeast 370 426 11,100 971 Climbing FlightAware ADS-B (KSNC)
Mon 09:48:12 PM 40.4325 -73.1123 115° Southeast 396 456 11,700 1,517 Climbing FlightAware ADS-B (KSNC)
Mon 09:49:04 PM 40.3920 -72.9970 115° Southeast 410 472 13,300 1,890 Climbing FlightAware ADS-B
Mon 09:49:25 PM 40.3740 -72.9463 115° Southeast 417 480 14,000 2,000 Climbing FlightAware ADS-B (KSNC)
Mon 09:49:55 PM 40.3507 -72.8765 114° Southeast 422 486 15,000 1,941 Climbing FlightAware ADS-B (KSNC)
Mon 09:50:33 PM 40.3206 -72.7892 114° Southeast 430 495 16,200 1,800 Climbing FlightAware ADS-B (KSNC)
Mon 09:51:25 PM 40.2780 -72.6660 114° Southeast 443 510 17,700 1,685 Climbing FlightAware ADS-B
Mon 09:52:02 PM 40.2460 -72.5720 114° Southeast 452 520 18,700 1,579 Climbing FlightAware ADS-B
Mon 09:52:22 PM 40.2310 -72.5210 111° Southeast 453 521 19,200 1,500 Climbing FlightAware ADS-B
Mon 09:52:34 PM 40.2270 -72.4858 98° East 456 525 19,500 1,532 Climbing FlightAware ADS-B (KSNC)
Mon 09:53:09 PM 40.2390 -72.3960 80° East 460 529 20,400 1,500 Climbing FlightAware ADS-B
Mon 09:53:42 PM 40.2670 -72.3080 67° East 466 536 21,200 1,286 Climbing FlightAware ADS-B
Mon 09:54:19 PM 40.2930 -72.2300 66° East 472 543 21,900 1,259 Climbing FlightAware ADS-B
Mon 09:55:03 PM 40.3370 -72.0960 67° East 484 557 22,900 1,325 Climbing FlightAware ADS-B
Mon 09:55:36 PM 40.3660 -72.0060 67° East 491 565 23,600 1,200 Climbing FlightAware ADS-B
Mon 09:56:13 PM 40.4000 -71.9020 67° East 497 572 24,300 1,167 Climbing FlightAware ADS-B
Mon 09:56:48 PM 40.4320 -71.8040 67° East 502 578 25,000 1,114 Climbing FlightAware ADS-B
Mon 09:57:23 PM 40.4600 -71.7160 67° East 502 578 25,600 529 Climbing FlightAware ADS-B
Mon 09:57:56 PM 40.4850 -71.6380 67° East 502 578 25,600 1,043 Level FlightAware ADS-B
Mon 09:58:32 PM 40.5250 -71.5120 67° East 520 598 26,800 1,479 Climbing FlightAware ADS-B
Mon 09:59:09 PM 40.5620 -71.3970 67° East 525 604 27,400 930 Climbing FlightAware ADS-B
Mon 09:59:43 PM 40.5930 -71.2970 68° East 529 609 27,900 1,130 Climbing FlightAware ADS-B
Mon 10:00:18 PM 40.6260 -71.1930 67° East 528 608 28,700 1,250 Climbing FlightAware ADS-B
Mon 10:00:55 PM 40.6610 -71.0800 68° East 527 606 29,400 1,130 Climbing FlightAware ADS-B
Mon 10:01:27 PM 40.6910 -70.9880 67° East 527 606 30,000 1,059 Climbing FlightAware ADS-B
Mon 10:02:03 PM 40.7230 -70.8840 68° East 528 608 30,600 845 Climbing FlightAware ADS-B
Mon 10:02:38 PM 40.7570 -70.7740 68° East 530 610 31,000 348 Climbing FlightAware ADS-B
Mon 10:03:12 PM 40.7860 -70.6810 68° East 531 611 31,000  Level FlightAware ADS-B
Mon 10:03:44 PM 40.8170 -70.5810 68° East 532 612 31,000  Level FlightAware ADS-B
Mon 10:04:20 PM 40.8500 -70.4730 68° East 533 613 31,000  Level FlightAware ADS-B
Mon 10:05:17 PM 40.9000 -70.3090 68° East 535 616 31,000  Level FlightAware ADS-B
Mon 10:05:53 PM 40.9290 -70.2160 68° East 535 616 31,000  Level FlightAware ADS-B
Mon 10:06:29 PM 40.9570 -70.1230 68° East 535 616 31,000  Level FlightAware ADS-B
Mon 10:07:05 PM 40.9850 -70.0300 68° East 535 616 31,000  Level FlightAware ADS-B
Mon 10:07:41 PM 41.0140 -69.9370 68° East 535 616 31,000  Level FlightAware ADS-B
Mon 10:08:17 PM 41.0420 -69.8440 68° East 535 616 31,000  Level FlightAware ADS-B
Mon 10:08:53 PM 41.0700 -69.7510 68° East 535 616 31,000  Level FlightAware ADS-B
Mon 10:09:29 PM 41.0990 -69.6580 67° East 535 616 31,000  Level FlightAware ADS-B
Mon 10:10:05 PM 41.1270 -69.5650 68° East 535 616 31,000  Level FlightAware ADS-B
Mon 10:10:41 PM 41.1560 -69.4710 68° East 535 616 31,000  Level FlightAware ADS-B
Mon 10:11:08 PM 41.1770 -69.4020 68° East 535 616 31,000  Level FlightAware ADS-B
Mon 10:11:50 PM 41.2100 -69.2930 68° East 535 616 31,000  Level FlightAware ADS-B
Mon 10:12:26 PM 41.2380 -69.1990 68° East 535 616 31,000  Level FlightAware ADS-B
Mon 10:13:02 PM 41.2670 -69.1060 67° East 535 616 31,000  Level FlightAware ADS-B
Mon 10:13:36 PM 41.3370 -68.7550 75° East 540 621 31,000  Level FlightAware ADS-B
Mon 10:14:22 PM 41.3710 -68.6300 70° East 540 621 31,000  Level FlightAware ADS-B
Mon 10:14:59 PM 41.3970 -68.5320 70° East 540 621 31,000  Level FlightAware ADS-B
Mon 10:15:11 PM 41.4153 -68.4573 72° East 539 620 31,000  Level FlightAware ADS-B
Mon 10:15:42 PM 41.4405 -68.3603 71° East 539 620 31,000  Level FlightAware ADS-B
Mon 10:16:13 PM 41.4510 -68.3350 61° Northeast 540 621 31,000  Level FlightAware ADS-B
Mon 10:16:37 PM 41.4807 -68.2041 73° East 536 617 31,000  Level FlightAware ADS-B
Mon 10:17:26 PM 41.5040 -68.1400 64° Northeast 540 621 31,000  Level FlightAware ADS-B
Mon 10:18:03 PM 41.5310 -68.0420 70° East 540 621 31,000  Level FlightAware ADS-B
Mon 10:18:40 PM 41.5580 -67.9430 70° East 540 621 31,000  Level FlightAware ADS-B
Mon 10:19:18 PM 41.5860 -67.8420 70° East 540 621 31,000  Level FlightAware ADS-B
Mon 10:19:54 PM 41.6120 -67.7460 70° East 540 621 31,000  Level FlightAware ADS-B
Mon 10:20:30 PM 41.6380 -67.6500 70° East 540 621 31,000  Level FlightAware ADS-B
Mon 10:21:06 PM 41.6640 -67.5530 70° East 540 621 31,000  Level FlightAware ADS-B
Mon 10:21:14 PM 41.7039 -67.3232 77° East 535 616 31,000  Level FlightAware ADS-B
Mon 10:21:45 PM 41.7279 -67.2257 72° East 536 617 31,000  Level FlightAware ADS-B
Mon 10:22:24 PM 41.7584 -67.1028 72° East 537 618 31,000  Level FlightAware ADS-B
Mon 10:22:57 PM 41.7791 -67.0177 72° East 538 619 31,000  Level FlightAware ADS-B
Mon 10:23:32 PM 41.7700 -67.1630 265° West 540 621 31,000  Level FlightAware ADS-B
Mon 10:23:51 PM 41.8302 -66.8264 76° East 538 619 31,000  Level FlightAware ADS-B
Mon 10:24:32 PM 41.8656 -66.7015 69° East 538 619 31,000  Level FlightAware ADS-B
Mon 10:25:16 PM 41.9007 -66.5704 70° East 535 616 31,000  Level FlightAware ADS-B
Mon 10:25:57 PM 41.9374 -66.4364 70° East 534 615 31,000  Level FlightAware ADS-B
Mon 10:26:28 PM 41.9613 -66.3462 70° East 534 615 31,000  Level FlightAware ADS-B
Mon 10:27:04 PM 41.9925 -66.2276 70° East 535 616 31,000  Level FlightAware ADS-B
Mon 10:27:39 PM 42.0219 -66.1180 70° East 535 616 31,000  Level FlightAware ADS-B
Mon 10:28:09 PM 42.0469 -66.0238 70° East 536 617 31,000  Level FlightAware ADS-B
Mon 10:28:59 PM 42.0865 -65.8703 71° East 536 617 31,000  Level FlightAware ADS-B
Mon 10:29:30 PM 42.1115 -65.7757 70° East 536 617 31,000  Level FlightAware ADS-B
Mon 10:30:01 PM 42.1375 -65.6751 71° East 537 618 31,000  Level FlightAware ADS-B
Mon 10:30:31 PM 42.1614 -65.5836 71° East 537 618 31,000  Level FlightAware ADS-B
Mon 10:31:06 PM 42.1918 -65.4663 71° East 538 619 31,000  Level FlightAware ADS-B
Mon 10:31:36 PM 42.2165 -65.3714 71° East 539 620 31,000  Level FlightAware ADS-B
Mon 10:32:10 PM 42.2443 -65.2639 71° East 538 619 31,000  Level FlightAware ADS-B
Mon 10:32:41 PM 42.2687 -65.1655 71° East 538 619 31,000  Level FlightAware ADS-B
Mon 10:33:21 PM 42.3012 -65.0387 71° East 539 620 31,000  Level FlightAware ADS-B
Mon 10:34:12 PM 42.3402 -64.8828 71° East 539 620 31,000  Level FlightAware ADS-B
Mon 10:34:42 PM 42.3662 -64.7809 71° East 538 619 31,000  Level FlightAware ADS-B
Mon 10:35:12 PM 42.3897 -64.6855 71° East 539 620 31,000  Level FlightAware ADS-B
Mon 10:35:50 PM 42.4201 -64.5641 71° East 538 619 31,000  Level FlightAware ADS-B
Mon 10:36:21 PM 42.4448 -64.4652 71° East 538 619 31,000  Level FlightAware ADS-B
Mon 10:36:53 PM 42.4701 -64.3634 71° East 537 618 31,000  Level FlightAware ADS-B
Mon 10:37:24 PM 42.4892 -64.2836 72° East 537 618 31,000  Level FlightAware ADS-B
Mon 10:38:18 PM 42.5298 -64.1174 72° East 538 619 31,000  Level FlightAware ADS-B
Mon 10:39:00 PM 42.5693 -63.9541 72° East 538 619 31,000  Level FlightAware ADS-B
Mon 10:39:35 PM 42.5953 -63.8452 72° East 538 619 31,000  Level FlightAware ADS-B
Mon 10:40:30 PM 42.6336 -63.6851 72° East 537 618 31,000  Level FlightAware ADS-B
Mon 10:42:24 PM 42.7251 -63.3002 72° East 538 619 31,000  Level FlightAware ADS-B
Mon 10:43:35 PM 42.7667 -63.0667 72° East 540 621 31,000  Level Gander Center
Mon 10:44:52 PM 42.8167 -62.8333 74° East 530 610 31,000  Level Moncton Center
Mon 10:45:52 PM 42.8667 -62.6500 70° East 540 621 31,000  Level Moncton Center
Mon 10:46:52 PM 42.9167 -62.4333 72° East 540 621 31,000  Level Moncton Center
Mon 10:47:52 PM 42.9500 -62.2333 77° East 530 610 31,000  Level Moncton Center
Mon 10:48:52 PM 43.0000 -62.0500 69° East 540 621 31,000  Level Moncton Center
Mon 10:49:52 PM 43.0333 -61.8333 78° East 540 621 31,000  Level Moncton Center
Mon 10:50:52 PM 43.0833 -61.6500 69° East 540 621 31,000  Level Moncton Center
Mon 10:51:52 PM 43.1333 -61.4500 71° East 530 610 31,000  Level Moncton Center
Mon 10:52:52 PM 43.1667 -61.2333 78° East 540 621 31,000  Level Moncton Center
Mon 10:53:52 PM 43.2000 -61.0500 76° East 540 621 31,000  Level Moncton Center
Mon 10:54:52 PM 43.2500 -60.8667 69° East 540 621 31,000  Level Moncton Center
Mon 10:55:52 PM 43.2833 -60.6500 78° East 540 621 31,000 500 Level Moncton Center
Mon 10:56:52 PM 43.3333 -60.4667 69° East 550 633 32,000 932 Climbing Moncton Center
Mon 10:57:35 PM 43.3500 -60.3167 81° East 550 633 32,600 583 Climbing Gander Center
Mon 10:58:35 PM 43.4000 -60.1167 71° East 550 633 33,000 200 Climbing Gander Center
Mon 10:59:35 PM 43.4333 -59.9000 78° East 540 621 33,000  Level Gander Center
Mon 11:05:53 PM 43.7050 -58.6520 78° East 550 633 33,000  Level FlightAware ADS-B
Mon 11:06:31 PM 43.7280 -58.5220 76° East 551 634 33,000  Level FlightAware ADS-B
Mon 11:07:12 PM 43.7520 -58.3990 75° East 551 634 33,000  Level FlightAware ADS-B
Mon 11:07:43 PM 43.7740 -58.2760 76° East 551 634 33,000  Level FlightAware ADS-B
Mon 11:08:28 PM 43.8000 -58.1430 75° East 551 634 33,000  Level FlightAware ADS-B
Mon 11:09:04 PM 43.8200 -58.0390 75° East 551 634 33,000  Level FlightAware ADS-B
Mon 11:09:40 PM 43.8400 -57.9340 75° East 551 634 33,000  Level FlightAware ADS-B
Mon 11:10:16 PM 43.8600 -57.8300 75° East 551 634 33,000  Level FlightAware ADS-B
Mon 11:10:51 PM 43.8910 -57.6290 78° East 552 635 33,000  Level FlightAware ADS-B
Mon 11:11:22 PM 43.9090 -57.5260 76° East 552 635 33,000  Level FlightAware ADS-B
Mon 11:12:03 PM 43.9310 -57.4040 76° East 552 635 33,000  Level FlightAware ADS-B
Mon 11:12:39 PM 43.9500 -57.2990 76° East 552 635 33,000  Level FlightAware ADS-B
Mon 11:13:15 PM 43.9690 -57.1930 76° East 552 635 33,000  Level FlightAware ADS-B
Mon 11:13:51 PM 43.9880 -57.0880 76° East 552 635 33,000  Level FlightAware ADS-B
Mon 11:14:27 PM 44.0060 -56.9830 77° East 552 635 33,000  Level FlightAware ADS-B
Mon 11:15:04 PM 44.0260 -56.8740 76° East 552 635 33,000  Level FlightAware ADS-B
Mon 11:15:40 PM 44.0450 -56.7690 76° East 552 635 33,000  Level FlightAware ADS-B
Mon 11:16:16 PM 44.0640 -56.6630 76° East 552 635 33,000  Level FlightAware ADS-B
Mon 11:16:53 PM 44.0830 -56.5550 76° East 552 635 33,000  Level FlightAware ADS-B
Mon 11:17:29 PM 44.1020 -56.4490 76° East 552 635 33,000  Level FlightAware ADS-B
Mon 11:18:05 PM 44.1210 -56.3440 76° East 552 635 33,000  Level FlightAware ADS-B
Mon 11:18:39 PM 44.1390 -56.2440 76° East 552 635 33,000  Level FlightAware ADS-B
Mon 11:19:16 PM 44.1580 -56.1350 76° East 552 635 33,000  Level FlightAware ADS-B
Mon 11:19:52 PM 44.1770 -56.0290 76° East 552 635 33,000  Level FlightAware ADS-B
Mon 11:20:28 PM 44.1960 -55.9240 76° East 552 635 33,000  Level FlightAware ADS-B
Mon 11:20:46 PM 44.1190 -55.5460 106° East 553 636 33,000  Level FlightAware ADS-B
Mon 11:21:23 PM 44.1290 -55.4150 84° East 553 636 33,000  Level FlightAware ADS-B
Mon 11:21:56 PM 44.1370 -55.2990 84° East 553 636 33,000  Level FlightAware ADS-B
Mon 11:22:33 PM 44.1470 -55.1710 84° East 553 636 33,000  Level FlightAware ADS-B
Mon 11:23:09 PM 44.1560 -55.0400 84° East 553 636 33,000  Level FlightAware ADS-B
Mon 11:23:39 PM 44.1630 -54.9340 85° East 554 638 33,000  Level FlightAware ADS-B
Mon 11:24:14 PM 44.1680 -54.8130 87° East 556 640 33,000  Level FlightAware ADS-B
Mon 11:24:54 PM 44.1720 -54.6910 87° East 556 640 33,000  Level FlightAware ADS-B
Mon 11:25:28 PM 44.1760 -54.5870 87° East 556 640 33,000  Level FlightAware ADS-B
Mon 11:26:00 PM 44.1710 -54.4260 92° East 557 641 33,000  Level FlightAware ADS-B
Mon 11:26:35 PM 44.1720 -54.3010 89° East 557 641 33,000  Level FlightAware ADS-B
Mon 11:27:10 PM 44.1730 -54.1930 89° East 557 641 33,000  Level FlightAware ADS-B
Mon 11:27:45 PM 44.1730 -54.0570 90° East 557 641 33,000  Level FlightAware ADS-B
Mon 11:28:21 PM 44.1730 -53.9250 90° East 556 640 33,000  Level FlightAware ADS-B
Mon 11:29:02 PM 44.1740 -53.8060 89° East 556 640 33,000  Level FlightAware ADS-B
Mon 11:29:46 PM 44.1730 -53.6180 90° East 554 638 33,000  Level FlightAware ADS-B
Mon 11:30:20 PM 44.1730 -53.5000 90° East 554 638 33,000  Level FlightAware ADS-B
Mon 11:30:53 PM 44.1730 -53.4000 90° East 554 638 33,000  Level FlightAware ADS-B
Mon 11:31:32 PM 44.1730 -53.2480 90° East 553 636 33,000  Level FlightAware ADS-B
Mon 11:32:26 PM 44.1720 -53.0710 90° East 552 635 33,000  Level FlightAware ADS-B
Mon 11:33:01 PM 44.1710 -52.9280 91° East 552 635 33,000  Level FlightAware ADS-B
Mon 11:33:38 PM 44.1700 -52.7970 91° East 551 634 33,000  Level FlightAware ADS-B
Mon 11:34:10 PM 44.1690 -52.6810 91° East 551 634 33,000  Level FlightAware ADS-B
Mon 11:34:47 PM 44.1680 -52.5530 91° East 551 634 33,000  Level FlightAware ADS-B
Mon 11:35:23 PM 44.1650 -52.4220 92° East 552 635 33,000  Level FlightAware ADS-B
Mon 11:35:29 PM 44.1667 -52.4333 95° East 555 639 33,000  Level New York Oceanic (ODAPS)
Mon 11:35:59 PM 44.1333 -52.2667 95° East 570 656 33,000  Level Moncton Center
Mon 11:36:13 PM 44.1580 -52.2670 94° East 553 636 33,000  Level FlightAware ADS-B
Mon 11:36:49 PM 44.1520 -52.1580 94° East 553 636 33,000  Level FlightAware ADS-B
Mon 11:37:18 PM 44.1420 -52.0150 96° East 552 635 33,000  Level FlightAware ADS-B
Mon 11:37:57 PM 44.1340 -51.8840 95° East 552 635 33,000  Level FlightAware ADS-B
Mon 11:38:30 PM 44.1260 -51.7640 95° East 552 635 33,000  Level FlightAware ADS-B
Mon 11:39:12 PM 44.1170 -51.6190 95° East 552 635 33,000  Level FlightAware ADS-B
Mon 11:39:50 PM 44.1080 -51.4820 95° East 552 635 33,000  Level FlightAware ADS-B
Mon 11:40:46 PM 44.0950 -51.2840 95° East 553 636 33,000  Level FlightAware ADS-B
Mon 11:41:17 PM 44.0870 -51.1740 95° East 553 636 33,000  Level FlightAware ADS-B
Mon 11:41:52 PM 44.0800 -51.0640 95° East 553 636 33,000  Level FlightAware ADS-B
Mon 11:42:28 PM 44.0730 -50.9550 95° East 553 636 33,000  Level FlightAware ADS-B
Mon 11:43:04 PM 44.0660 -50.8470 95° East 553 636 33,000  Level FlightAware ADS-B
Mon 11:43:41 PM 44.0590 -50.7350 95° East 553 636 33,000  Level FlightAware ADS-B
Mon 11:44:18 PM 44.0520 -50.6240 95° East 553 636 33,000  Level FlightAware ADS-B
Mon 11:44:54 PM 44.0450 -50.5150 95° East 553 636 33,000  Level FlightAware ADS-B
Mon 11:45:30 PM 44.0390 -50.4070 94° East 553 636 33,000  Level FlightAware ADS-B
Mon 11:46:06 PM 44.0320 -50.2980 95° East 553 636 33,000  Level FlightAware ADS-B
Mon 11:46:42 PM 44.0250 -50.1900 95° East 553 636 33,000  Level FlightAware ADS-B
Mon 11:47:18 PM 44.0180 -50.0810 95° East 553 636 33,000  Level FlightAware ADS-B
Mon 11:47:25 PM 44.0000 -50.0000 79° East 544 626 33,000  Level New York Oceanic (ODAPS)
Mon 11:47:54 PM 44.0110 -49.9730 95° East 553 636 33,000  Level FlightAware ADS-B
Mon 11:48:30 PM 44.0040 -49.8650 95° East 553 636 33,000  Level FlightAware ADS-B
Mon 11:49:06 PM 43.9970 -49.7560 95° East 553 636 33,000  Level FlightAware ADS-B
Mon 11:49:24 PM 44.0667 -49.5000 79° East 539 620 33,000  Level New York Oceanic (ODAPS)
Mon 11:49:43 PM 43.9900 -49.6450 95° East 553 636 33,000  Level FlightAware ADS-B
Mon 11:50:19 PM 43.9840 -49.5360 94° East 553 636 33,000  Level FlightAware ADS-B
Mon 11:50:55 PM 43.9770 -49.4280 95° East 553 636 33,000  Level FlightAware ADS-B
Mon 11:55:00 PM 44.2327 -48.2798 80° East 539 620 33,000  Level FlightAware Transoceanic
Mon 11:56:00 PM 44.2591 -48.0758 80° East 539 620 33,000  Level FlightAware Transoceanic
Mon 11:57:00 PM 44.2852 -47.8716 80° East 539 620 33,000  Level FlightAware Transoceanic
Mon 11:58:00 PM 44.3109 -47.6672 80° East 539 620 33,000  Level FlightAware Transoceanic
Mon 11:59:00 PM 44.3362 -47.4626 80° East 539 620 33,000  Level FlightAware Transoceanic
Tue 12:00:00 AM 44.3611 -47.2579 80° East 539 620 33,000  Level FlightAware Transoceanic
Tue 12:01:00 AM 44.3857 -47.0530 81° East 539 620 33,000  Level FlightAware Transoceanic
Tue 12:02:00 AM 44.4100 -46.8479 81° East 539 620 33,000  Level FlightAware Transoceanic
Tue 12:03:00 AM 44.4338 -46.6426 81° East 539 620 33,000  Level FlightAware Transoceanic
Tue 12:04:00 AM 44.4573 -46.4372 81° East 539 620 33,000  Level FlightAware Transoceanic
Tue 12:05:00 AM 44.4804 -46.2316 81° East 539 620 33,000  Level FlightAware Transoceanic
Tue 12:06:00 AM 44.5032 -46.0259 81° East 539 620 33,000  Level FlightAware Transoceanic
Tue 12:07:00 AM 44.5256 -45.8200 81° East 539 620 33,000  Level FlightAware Transoceanic
Tue 12:08:00 AM 44.5476 -45.6139 82° East 539 620 33,000  Level FlightAware Transoceanic
Tue 12:09:00 AM 44.5692 -45.4077 82° East 539 620 33,000  Level FlightAware Transoceanic
Tue 12:10:00 AM 44.5905 -45.2013 82° East 539 620 33,000  Level FlightAware Transoceanic
Tue 12:11:00 AM 44.6114 -44.9948 82° East 539 620 33,000  Level FlightAware Transoceanic
Tue 12:12:00 AM 44.6319 -44.7882 82° East 539 620 33,000  Level FlightAware Transoceanic
Tue 12:13:00 AM 44.6520 -44.5813 82° East 539 620 33,000  Level FlightAware Transoceanic
Tue 12:14:00 AM 44.6718 -44.3744 82° East 539 620 33,000  Level FlightAware Transoceanic
Tue 12:15:00 AM 44.6912 -44.1673 83° East 539 620 33,000  Level FlightAware Transoceanic
Tue 12:16:00 AM 44.7102 -43.9601 83° East 539 620 33,000  Level FlightAware Transoceanic
Tue 12:17:00 AM 44.7289 -43.7527 83° East 539 620 33,000  Level FlightAware Transoceanic
Tue 12:18:00 AM 44.7472 -43.5452 83° East 539 620 33,000  Level FlightAware Transoceanic
Tue 12:19:00 AM 44.7651 -43.3376 83° East 539 620 33,000  Level FlightAware Transoceanic
Tue 12:20:00 AM 44.7826 -43.1298 83° East 539 620 33,000  Level FlightAware Transoceanic
Tue 12:21:00 AM 44.7997 -42.9220 83° East 539 620 33,000  Level FlightAware Transoceanic
Tue 12:22:00 AM 44.8165 -42.7140 84° East 539 620 33,000  Level FlightAware Transoceanic
Tue 12:23:00 AM 44.8329 -42.5058 84° East 539 620 33,000  Level FlightAware Transoceanic
Tue 12:24:00 AM 44.8489 -42.2976 84° East 539 620 33,000  Level FlightAware Transoceanic
Tue 12:25:00 AM 44.8646 -42.0892 84° East 539 620 33,000  Level FlightAware Transoceanic
Tue 12:26:00 AM 44.8798 -41.8808 84° East 539 620 33,000  Level FlightAware Transoceanic
Tue 12:27:00 AM 44.8947 -41.6722 84° East 539 620 33,000  Level FlightAware Transoceanic
Tue 12:28:00 AM 44.9092 -41.4635 84° East 539 620 33,000  Level FlightAware Transoceanic
Tue 12:29:00 AM 44.9233 -41.2547 85° East 539 620 33,000  Level FlightAware Transoceanic
Tue 12:30:00 AM 44.9370 -41.0458 85° East 539 620 33,000  Level FlightAware Transoceanic
Tue 12:30:00 AM 44.0000 -50.0000 79° East 528 608 33,000  Level ETMS Enhanced Traffic Management System
Tue 12:31:00 AM 44.9504 -40.8369 85° East 539 620 33,000  Level FlightAware Transoceanic
Tue 12:32:00 AM 44.9634 -40.6278 85° East 539 620 33,000  Level FlightAware Transoceanic
Tue 12:33:00 AM 44.9760 -40.4186 85° East 539 620 33,000  Level FlightAware Transoceanic
Tue 12:34:00 AM 44.9882 -40.2094 85° East 539 620 33,000  Level FlightAware Transoceanic
Tue 12:35:00 AM 45.0000 -40.0000 70° East 539 620 33,000  Level FlightAware Transoceanic
Tue 12:36:00 AM 45.0504 -39.7994 71° East 528 608 33,000  Level FlightAware Transoceanic
Tue 12:37:00 AM 45.1004 -39.5984 71° East 528 608 33,000  Level FlightAware Transoceanic
Tue 12:38:00 AM 45.1500 -39.3971 71° East 528 608 33,000  Level FlightAware Transoceanic
Tue 12:39:00 AM 45.1993 -39.1954 71° East 528 608 33,000  Level FlightAware Transoceanic
Tue 12:40:00 AM 45.2483 -38.9934 71° East 528 608 33,000  Level FlightAware Transoceanic
Tue 12:41:00 AM 45.2969 -38.7910 71° East 528 608 33,000  Level FlightAware Transoceanic
Tue 12:42:00 AM 45.3451 -38.5883 71° East 528 608 33,000  Level FlightAware Transoceanic
Tue 12:43:00 AM 45.3930 -38.3852 72° East 528 608 33,000  Level FlightAware Transoceanic
Tue 12:44:00 AM 45.4405 -38.1818 72° East 528 608 33,000  Level FlightAware Transoceanic
Tue 12:45:00 AM 45.4876 -37.9781 72° East 528 608 33,000  Level FlightAware Transoceanic
Tue 12:46:00 AM 45.5344 -37.7740 72° East 528 608 33,000  Level FlightAware Transoceanic
Tue 12:47:00 AM 45.5808 -37.5695 72° East 528 608 33,000  Level FlightAware Transoceanic
Tue 12:48:00 AM 45.6269 -37.3648 72° East 528 608 33,000  Level FlightAware Transoceanic
Tue 12:49:00 AM 45.6726 -37.1597 72° East 528 608 33,000  Level FlightAware Transoceanic
Tue 12:50:00 AM 45.7179 -36.9543 73° East 528 608 33,000  Level FlightAware Transoceanic
Tue 12:51:00 AM 45.7629 -36.7485 73° East 528 608 33,000  Level FlightAware Transoceanic
Tue 12:52:00 AM 45.8075 -36.5424 73° East 528 608 33,000  Level FlightAware Transoceanic
Tue 12:53:00 AM 45.8517 -36.3360 73° East 528 608 33,000  Level FlightAware Transoceanic
Tue 12:54:00 AM 45.8955 -36.1292 73° East 528 608 33,000  Level FlightAware Transoceanic
Tue 12:55:00 AM 45.9390 -35.9221 73° East 528 608 33,000  Level FlightAware Transoceanic
Tue 12:56:00 AM 45.9821 -35.7147 73° East 528 608 33,000  Level FlightAware Transoceanic
Tue 12:57:00 AM 46.0248 -35.5070 74° East 528 608 33,000  Level FlightAware Transoceanic
Tue 12:58:00 AM 46.0672 -35.2990 74° East 528 608 33,000  Level FlightAware Transoceanic
Tue 12:59:00 AM 46.1091 -35.0906 74° East 528 608 33,000  Level FlightAware Transoceanic
Tue 01:00:00 AM 46.1507 -34.8819 74° East 528 608 33,000  Level FlightAware Transoceanic
Tue 01:01:00 AM 46.1919 -34.6729 74° East 528 608 33,000  Level FlightAware Transoceanic
Tue 01:02:00 AM 46.2327 -34.4636 74° East 528 608 33,000  Level FlightAware Transoceanic
Tue 01:03:00 AM 46.2732 -34.2540 74° East 528 608 33,000  Level FlightAware Transoceanic
Tue 01:04:00 AM 46.3132 -34.0441 75° East 528 608 33,000  Level FlightAware Transoceanic
Tue 01:05:00 AM 46.3529 -33.8339 75° East 528 608 33,000  Level FlightAware Transoceanic
Tue 01:06:00 AM 46.3922 -33.6233 75° East 528 608 33,000  Level FlightAware Transoceanic
Tue 01:07:00 AM 46.4311 -33.4125 75° East 528 608 33,000  Level FlightAware Transoceanic
Tue 01:08:00 AM 46.4696 -33.2014 75° East 528 608 33,000  Level FlightAware Transoceanic
Tue 01:09:00 AM 46.5077 -32.9899 75° East 528 608 33,000  Level FlightAware Transoceanic
Tue 01:10:00 AM 46.5454 -32.7782 76° East 528 608 33,000  Level FlightAware Transoceanic
Tue 01:11:00 AM 46.5828 -32.5662 76° East 528 608 33,000  Level FlightAware Transoceanic
Tue 01:12:00 AM 46.6197 -32.3539 76° East 528 608 33,000  Level FlightAware Transoceanic
Tue 01:13:00 AM 46.6563 -32.1413 76° East 528 608 33,000  Level FlightAware Transoceanic
Tue 01:14:00 AM 46.6925 -31.9284 76° East 528 608 33,000  Level FlightAware Transoceanic
Tue 01:15:00 AM 46.7282 -31.7153 76° East 528 608 33,000  Level FlightAware Transoceanic
Tue 01:16:00 AM 46.7636 -31.5018 76° East 528 608 33,000  Level FlightAware Transoceanic
Tue 01:17:00 AM 46.7986 -31.2881 77° East 528 608 33,000  Level FlightAware Transoceanic
Tue 01:18:00 AM 46.8331 -31.0741 77° East 528 608 33,000  Level FlightAware Transoceanic
Tue 01:19:00 AM 46.8673 -30.8598 77° East 528 608 33,000  Level FlightAware Transoceanic
Tue 01:20:00 AM 46.9011 -30.6453 77° East 528 608 33,000  Level FlightAware Transoceanic
Tue 01:21:00 AM 46.9345 -30.4304 77° East 528 608 33,000  Level FlightAware Transoceanic
Tue 01:22:00 AM 46.9674 -30.2153 77° East 528 608 33,000  Level FlightAware Transoceanic
Tue 01:23:00 AM 46.9865 -29.9990 83° East  Level Estimated
Tue 01:24:00 AM 47.0053 -29.7825 83° East  Level Estimated
Tue 01:25:00 AM 47.0236 -29.5658 83° East  Level Estimated
Tue 01:26:00 AM 47.0415 -29.3490 83° East  Level Estimated
Tue 01:27:00 AM 47.0589 -29.1326 83° East  Level Estimated
Tue 01:28:00 AM 47.0759 -28.9160 83° East  Level Estimated
Tue 01:29:00 AM 47.0925 -28.6993 83° East  Level Estimated
Tue 01:30:00 AM 47.1087 -28.4825 84° East  Level Estimated
Tue 01:31:00 AM 47.1245 -28.2655 84° East  Level Estimated
Tue 01:32:00 AM 47.1399 -28.0484 84° East  Level Estimated
Tue 01:33:00 AM 47.1549 -27.8312 84° East  Level Estimated
Tue 01:34:00 AM 47.1695 -27.6138 84° East  Level Estimated
Tue 01:35:00 AM 47.1837 -27.3964 84° East  Level Estimated
Tue 01:36:00 AM 47.1974 -27.1788 85° East  Level Estimated
Tue 01:37:00 AM 47.2108 -26.9611 85° East  Level Estimated
Tue 01:38:00 AM 47.2237 -26.7433 85° East  Level Estimated
Tue 01:39:00 AM 47.2362 -26.5254 85° East  Level Estimated
Tue 01:40:00 AM 47.2483 -26.3074 85° East  Level Estimated
Tue 01:41:00 AM 47.2600 -26.0893 85° East  Level Estimated
Tue 01:42:00 AM 47.2713 -25.8712 86° East  Level Estimated
Tue 01:43:00 AM 47.2821 -25.6529 86° East  Level Estimated
Tue 01:44:00 AM 47.2925 -25.4345 86° East  Level Estimated
Tue 01:45:00 AM 47.3026 -25.2161 86° East  Level Estimated
Tue 01:46:00 AM 47.3122 -24.9975 86° East  Level Estimated
Tue 01:47:00 AM 47.3214 -24.7789 86° East  Level Estimated
Tue 01:48:00 AM 47.3302 -24.5602 87° East  Level Estimated
Tue 01:49:00 AM 47.3385 -24.3415 87° East  Level Estimated
Tue 01:50:00 AM 47.3465 -24.1226 87° East  Level Estimated
Tue 01:51:00 AM 47.3540 -23.9037 87° East  Level Estimated
Tue 01:52:00 AM 47.3611 -23.6848 87° East  Level Estimated
Tue 01:53:00 AM 47.3678 -23.4658 87° East  Level Estimated
Tue 01:54:00 AM 47.3741 -23.2467 87° East  Level Estimated
Tue 01:55:00 AM 47.3800 -23.0276 88° East  Level Estimated
Tue 01:56:00 AM 47.3854 -22.8085 88° East  Level Estimated
Tue 01:57:00 AM 47.3905 -22.5893 88° East  Level Estimated
Tue 01:58:00 AM 47.3951 -22.3700 88° East  Level Estimated
Tue 01:59:00 AM 47.3993 -22.1507 88° East  Level Estimated
Tue 02:00:00 AM 47.4030 -21.9314 88° East  Level Estimated
Tue 02:01:00 AM 47.4064 -21.7121 89° East  Level Estimated
Tue 02:02:00 AM 47.4093 -21.4927 89° East  Level Estimated
Tue 02:03:00 AM 47.4118 -21.2733 89° East  Level Estimated
Tue 02:04:00 AM 47.4140 -21.0539 89° East  Level Estimated
Tue 02:05:00 AM 47.4156 -20.8345 89° East  Level Estimated
Tue 02:06:00 AM 47.4169 -20.6150 89° East  Level Estimated
Tue 02:07:00 AM 47.4177 -20.3956 90° East  Level Estimated
Tue 02:08:00 AM 47.4182 -20.1761 90° East  Level Estimated
Tue 02:09:00 AM 47.4182 -19.9567 90° East  Level Estimated
Tue 02:10:00 AM 47.4178 -19.7376 90° East  Level Estimated
Tue 02:11:00 AM 47.4169 -19.5186 90° East  Level Estimated
Tue 02:12:00 AM 47.4157 -19.2995 90° East  Level Estimated
Tue 02:13:00 AM 47.4140 -19.0805 91° East  Level Estimated
Tue 02:14:00 AM 47.4119 -18.8615 91° East  Level Estimated
Tue 02:15:00 AM 47.4095 -18.6425 91° East  Level Estimated
Tue 02:16:00 AM 47.4065 -18.4235 91° East  Level Estimated
Tue 02:17:00 AM 47.4032 -18.2045 91° East  Level Estimated
Tue 02:18:00 AM 47.3995 -17.9856 91° East  Level Estimated
Tue 02:19:00 AM 47.3953 -17.7667 92° East  Level Estimated
Tue 02:20:00 AM 47.3907 -17.5478 92° East  Level Estimated
Tue 02:21:00 AM 47.3857 -17.3290 92° East  Level Estimated
Tue 02:22:00 AM 47.3803 -17.1103 92° East  Level Estimated
Tue 02:23:00 AM 47.3745 -16.8915 92° East  Level Estimated
Tue 02:24:00 AM 47.3682 -16.6728 92° East  Level Estimated
Tue 02:25:00 AM 47.3616 -16.4542 92° East  Level Estimated
Tue 02:26:00 AM 47.3545 -16.2357 93° East  Level Estimated
Tue 02:27:00 AM 47.3470 -16.0172 93° East  Level Estimated
Tue 02:28:00 AM 47.3391 -15.7987 93° East  Level Estimated
Tue 02:29:00 AM 47.3308 -15.5803 93° East  Level Estimated
Tue 02:30:00 AM 47.3220 -15.3620 93° East  Level Estimated
Tue 02:31:00 AM 47.3129 -15.1438 93° East  Level Estimated
Tue 02:32:00 AM 47.3033 -14.9256 94° East  Level Estimated
Tue 02:33:00 AM 47.2933 -14.7076 94° East  Level Estimated
Tue 02:34:00 AM 47.2829 -14.4896 94° East  Level Estimated
Tue 02:35:00 AM 47.2721 -14.2717 94° East  Level Estimated
Tue 02:36:00 AM 47.2609 -14.0539 94° East  Level Estimated
Tue 02:37:00 AM 47.2493 -13.8362 94° East  Level Estimated
Tue 02:38:00 AM 47.2372 -13.6185 95° East  Level Estimated
Tue 02:39:00 AM 47.2248 -13.4010 95° East  Level Estimated
Tue 02:40:00 AM 47.2119 -13.1836 95° East  Level Estimated
Tue 02:41:00 AM 47.1986 -12.9663 95° East  Level Estimated
Tue 02:42:00 AM 47.1849 -12.7491 95° East  Level Estimated
Tue 02:43:00 AM 47.1708 -12.5320 95° East  Level Estimated
Tue 02:44:00 AM 47.1563 -12.3150 96° East  Level Estimated
Tue 02:45:00 AM 47.1414 -12.0982 96° East  Level Estimated
Tue 02:46:00 AM 47.1261 -11.8815 96° East  Level Estimated
Tue 02:47:00 AM 47.1103 -11.6649 96° East  Level Estimated
Tue 02:47:58 AM 48.7890 -9.5130 96° East 616 709 33,000  Level FlightAware ADS-B
Tue 02:48:00 AM 47.0942 -11.4484 96° East  Level Estimated
Tue 02:48:34 AM 48.7780 -9.3550 96° East 617 710 33,000  Level FlightAware ADS-B
Tue 02:49:12 AM 48.7670 -9.1920 96° East 617 710 33,000  Level FlightAware ADS-B
Tue 02:49:44 AM 48.7580 -9.0540 96° East 617 710 33,000  Level FlightAware ADS-B
Tue 02:50:20 AM 48.7470 -8.8950 96° East 617 710 33,000  Level FlightAware ADS-B
Tue 02:50:55 AM 48.7370 -8.7540 96° East 617 710 33,000  Level FlightAware ADS-B
Tue 02:51:31 AM 48.7250 -8.5950 96° East 617 710 33,000  Level FlightAware ADS-B
Tue 02:52:04 AM 48.7140 -8.4490 96° East 617 710 33,000  Level FlightAware ADS-B
Tue 02:52:35 AM 48.7050 -8.3210 96° East 617 710 33,000  Level FlightAware ADS-B
Tue 02:53:14 AM 48.6895 -8.1441 96° East 498 573 33,000  Level FlightAware UK
Tue 02:53:16 AM 48.6920 -8.1540 96° East 619 712 33,000  Level FlightAware ADS-B
Tue 02:53:51 AM 48.6810 -8.0030 96° East 620 713 33,000  Level FlightAware ADS-B
Tue 02:54:24 AM 48.6680 -7.8570 98° East 623 717 33,000  Level FlightAware ADS-B
Tue 02:55:00 AM 48.6460 -7.7040 102° East 623 717 33,000  Level FlightAware ADS-B
Tue 02:55:35 AM 48.6140 -7.5590 108° East 623 717 33,000  Level FlightAware ADS-B
Tue 02:56:12 AM 48.5720 -7.4060 112° Southeast 622 716 33,000  Level FlightAware ADS-B
Tue 02:56:42 AM 48.5390 -7.2820 112° Southeast 623 717 33,000  Level FlightAware ADS-B
Tue 02:56:44 AM 48.5358 -7.2714 112° Southeast 500 575 33,000  Level FlightAware UK
Tue 02:57:14 AM 48.5023 -7.1511 112° Southeast 502 578 33,000  Level FlightAware UK
Tue 02:57:15 AM 48.5020 -7.1500 112° Southeast 624 718 33,000  Level FlightAware ADS-B
Tue 02:57:56 AM 48.4560 -6.9860 113° Southeast 624 718 33,000  Level FlightAware ADS-B
Tue 02:58:31 AM 48.4170 -6.8500 113° Southeast 625 719 33,000  Level FlightAware ADS-B
Tue 02:59:03 AM 48.3800 -6.7230 114° Southeast 625 719 33,000  Level FlightAware ADS-B
Tue 02:59:40 AM 48.3370 -6.5750 114° Southeast 627 722 33,000  Level FlightAware ADS-B
Tue 03:00:15 AM 48.2968 -6.4312 114° Southeast 500 575 33,000  Level FlightAware UK
Tue 03:00:15 AM 48.2980 -6.4390 114° Southeast 628 723 33,000  Level FlightAware ADS-B
Tue 03:00:45 AM 48.2619 -6.3119 114° Southeast 500 575 33,000  Level FlightAware UK
Tue 03:00:51 AM 48.2550 -6.2880 114° Southeast 628 723 33,000  Level FlightAware ADS-B
Tue 03:01:23 AM 48.2170 -6.1600 114° Southeast 627 722 33,000  Level FlightAware ADS-B
Tue 03:01:58 AM 48.1760 -6.0210 114° Southeast 625 719 33,000  Level FlightAware ADS-B
Tue 03:02:35 AM 48.1330 -5.8750 114° Southeast 624 718 33,000  Level FlightAware ADS-B
Tue 03:03:08 AM 48.0950 -5.7490 114° Southeast 622 716 33,000  Level FlightAware ADS-B
Tue 03:03:45 AM 48.0520 -5.6040 114° Southeast 622 716 33,000  Level FlightAware ADS-B
Tue 03:04:21 AM 48.0090 -5.4600 114° Southeast 620 713 33,000  Level FlightAware ADS-B
Tue 03:04:52 AM 47.9740 -5.3470 115° Southeast 616 709 33,000  Level FlightAware ADS-B
Tue 03:05:29 AM 47.9290 -5.2000 115° Southeast 612 704 33,000  Level FlightAware ADS-B
Tue 03:06:07 AM 47.8860 -5.0590 114° Southeast 612 704 33,000  Level FlightAware ADS-B
Tue 03:06:38 AM 47.8470 -4.9330 115° Southeast 611 703 33,000  Level FlightAware ADS-B
Tue 03:07:15 AM 47.8030 -4.7910 115° Southeast 611 703 33,000  Level FlightAware ADS-B
Tue 03:07:59 AM 47.7540 -4.6310 114° Southeast 612 704 33,000 80 Level FlightAware ADS-B
Tue 03:08:30 AM 47.7150 -4.5090 115° Southeast 615 708 33,100 857 Climbing FlightAware ADS-B
Tue 03:09:09 AM 47.6700 -4.3680 115° Southeast 613 705 34,000 1,543 Climbing FlightAware ADS-B
Tue 03:09:40 AM 47.6340 -4.2500 114° Southeast 608 700 34,900 882 Climbing FlightAware ADS-B
Tue 03:10:17 AM 47.5910 -4.1110 115° Southeast 606 697 35,000 81 Climbing FlightAware ADS-B
Tue 03:10:54 AM 47.5480 -3.9760 115° Southeast 604 695 35,000  Level FlightAware ADS-B
Tue 03:11:29 AM 47.5070 -3.8450 115° Southeast 603 694 35,000  Level FlightAware ADS-B
Tue 03:12:05 AM 47.4680 -3.7220 115° Southeast 601 692 35,000  Level FlightAware ADS-B
Tue 03:12:41 AM 47.4200 -3.5700 115° Southeast 600 690 35,000  Level FlightAware ADS-B
Tue 03:13:14 AM 47.3800 -3.4490 116° Southeast 599 689 35,000  Level FlightAware ADS-B
Tue 03:13:49 AM 47.3380 -3.3190 115° Southeast 599 689 35,000  Level FlightAware ADS-B
Tue 03:14:26 AM 47.2940 -3.1840 116° Southeast 601 692 35,000  Level FlightAware ADS-B
Tue 03:14:58 AM 47.2650 -3.0650 110° East 600 690 35,000  Level FlightAware ADS-B
Tue 03:15:35 AM 47.2330 -2.9130 107° East 600 690 35,000  Level FlightAware ADS-B
Tue 03:16:10 AM 47.2040 -2.7770 107° East 602 693 35,000  Level FlightAware ADS-B
Tue 03:16:47 AM 47.1750 -2.6360 107° East 603 694 35,000  Level FlightAware ADS-B
Tue 03:17:27 AM 47.1410 -2.4840 108° East 605 696 35,000  Level FlightAware ADS-B
Tue 03:18:01 AM 47.1120 -2.3460 107° East 606 697 35,000  Level FlightAware ADS-B
Tue 03:18:39 AM 47.0810 -2.2010 107° East 606 697 35,000  Level FlightAware ADS-B
Tue 03:18:48 AM 47.0756 -2.1783 109° East 607 699 35,000  Level FlightAware ADS-B (LFBU / ANG)
Tue 03:19:49 AM 47.0210 -1.9270 108° East 607 699 35,000  Level FlightAware ADS-B
Tue 03:20:25 AM 46.9890 -1.7830 108° East 607 699 35,000  Level FlightAware ADS-B
Tue 03:21:03 AM 46.9510 -1.6322 110° East 610 702 35,000  Level FlightAware ADS-B (LFBU / ANG)
Tue 03:21:34 AM 46.9180 -1.5140 112° Southeast 609 701 35,000  Level FlightAware ADS-B
Tue 03:22:10 AM 46.8790 -1.3770 113° Southeast 611 703 35,000  Level FlightAware ADS-B
Tue 03:22:45 AM 46.8400 -1.2400 113° Southeast 612 704 35,000  Level FlightAware ADS-B
Tue 03:23:05 AM 46.8187 -1.1679 113° Southeast 613 705 35,000  Level FlightAware ADS-B (LFBU / ANG)
Tue 03:23:53 AM 46.7660 -0.9850 113° Southeast 613 705 35,000  Level FlightAware ADS-B
Tue 03:24:27 AM 46.7290 -0.8560 113° Southeast 614 707 35,000  Level FlightAware ADS-B
Tue 03:25:03 AM 46.6890 -0.7190 113° Southeast 613 705 35,000  Level FlightAware ADS-B
Tue 03:25:09 AM 46.6824 -0.7002 117° Southeast 614 707 35,000  Level FlightAware ADS-B (LFBU / ANG)
Tue 03:26:00 AM 46.6247 -0.5032 113° Southeast 614 707 35,000  Level FlightAware ADS-B (LFBU / ANG)
Tue 03:26:47 AM 46.5720 -0.3250 113° Southeast 613 705 35,000  Level FlightAware ADS-B
Tue 03:27:03 AM 46.5589 -0.2802 113° Southeast 613 705 35,000  Level FlightAware ADS-B (LFBU / ANG)
Tue 03:27:59 AM 46.4920 -0.0570 113° Southeast 613 705 35,000  Level FlightAware ADS-B
Tue 03:28:15 AM 46.4729 0.0066 114° Southeast 612 704 35,000  Level FlightAware ADS-B (LFBU / ANG)
Tue 03:29:05 AM 46.4160 0.1980 113° Southeast 610 702 35,000  Level FlightAware ADS-B
Tue 03:29:16 AM 46.4039 0.2393 113° Southeast 611 703 35,000  Level FlightAware ADS-B (LFBU / ANG)
Tue 03:30:17 AM 46.3350 0.4630 114° Southeast 609 701 35,000  Level FlightAware ADS-B
Tue 03:30:54 AM 46.2920 0.6040 114° Southeast 608 700 35,000  Level FlightAware ADS-B
Tue 03:31:30 AM 46.2510 0.7380 114° Southeast 607 699 35,000  Level FlightAware ADS-B
Tue 03:32:01 AM 46.2170 0.8490 114° Southeast 607 699 35,000  Level FlightAware ADS-B
Tue 03:32:35 AM 46.1780 0.9750 114° Southeast 607 699 35,000  Level FlightAware ADS-B
Tue 03:33:14 AM 46.1330 1.1230 114° Southeast 605 696 35,000  Level FlightAware ADS-B
Tue 03:33:47 AM 46.0960 1.2440 114° Southeast 603 694 35,000  Level FlightAware ADS-B
Tue 03:34:22 AM 46.0560 1.3720 114° Southeast 602 693 35,000  Level FlightAware ADS-B
Tue 03:34:59 AM 46.0130 1.5030 115° Southeast 601 692 35,000  Level FlightAware ADS-B
Tue 03:35:35 AM 45.9710 1.6330 115° Southeast 599 689 35,000  Level FlightAware ADS-B
Tue 03:36:08 AM 45.9340 1.7480 115° Southeast 599 689 35,000  Level FlightAware ADS-B
Tue 03:36:42 AM 45.8950 1.8670 115° Southeast 598 688 35,000  Level FlightAware ADS-B
Tue 03:37:18 AM 45.8530 1.9960 115° Southeast 597 687 35,000  Level FlightAware ADS-B
Tue 03:37:57 AM 45.8050 2.1390 116° Southeast 596 686 35,000  Level FlightAware ADS-B
Tue 03:38:31 AM 45.7640 2.2640 115° Southeast 595 685 35,000  Level FlightAware ADS-B
Tue 03:39:09 AM 45.7200 2.3980 115° Southeast 593 682 35,000  Level FlightAware ADS-B
Tue 03:39:44 AM 45.6820 2.5110 116° Southeast 592 681 35,000  Level FlightAware ADS-B
Tue 03:40:19 AM 45.6390 2.6380 116° Southeast 592 681 35,000  Level FlightAware ADS-B
Tue 03:41:01 AM 45.5860 2.7930 116° Southeast 590 679 35,000  Level FlightAware ADS-B
Tue 03:41:37 AM 45.5440 2.9190 115° Southeast 590 679 35,000  Level FlightAware ADS-B
Tue 03:42:10 AM 45.5060 3.0310 116° Southeast 589 678 35,000  Level FlightAware ADS-B
Tue 03:42:43 AM 45.4660 3.1450 117° Southeast 587 676 35,000  Level FlightAware ADS-B
Tue 03:43:22 AM 45.4210 3.2770 116° Southeast 584 672 35,000  Level FlightAware ADS-B
Tue 03:43:58 AM 45.3770 3.4070 116° Southeast 580 667 35,000  Level FlightAware ADS-B
Tue 03:44:31 AM 45.3390 3.5160 116° Southeast 577 664 35,000  Level FlightAware ADS-B
Tue 03:45:06 AM 45.2980 3.6350 116° Southeast 575 662 35,000  Level FlightAware ADS-B
Tue 03:45:40 AM 45.2520 3.7460 120° Southeast 577 664 35,000  Level FlightAware ADS-B
Tue 03:46:19 AM 45.1970 3.8760 121° Southeast 577 664 35,000  Level FlightAware ADS-B
Tue 03:46:50 AM 45.1560 3.9740 121° Southeast 577 664 35,000  Level FlightAware ADS-B
Tue 03:47:27 AM 45.1080 4.0910 120° Southeast 578 665 35,000  Level FlightAware ADS-B
Tue 03:48:01 AM 45.0600 4.2090 120° Southeast 579 666 35,000  Level FlightAware ADS-B
Tue 03:48:18 AM 45.0360 4.2675 120° Southeast 579 666 35,000  Level FlightAware ADS-B (KSAC)
Tue 03:48:57 AM 44.9841 4.3918 121° Southeast 582 670 35,000  Level FlightAware ADS-B (KSAC)
Tue 03:49:30 AM 44.9384 4.5032 120° Southeast 583 671 35,000  Level FlightAware ADS-B (KSAC)
Tue 03:50:00 AM 44.8980 4.5982 121° Southeast 584 672 35,000  Level FlightAware ADS-B (KSAC)
Tue 03:50:41 AM 44.8421 4.7326 120° Southeast 585 673 35,000  Level FlightAware ADS-B (KSAC)
Tue 03:51:11 AM 44.8033 4.8245 121° Southeast 586 674 35,000  Level FlightAware ADS-B (KSAC)
Tue 03:51:50 AM 44.7458 4.9620 120° Southeast 586 674 35,000  Level FlightAware ADS-B (KSAC)
Tue 03:52:31 AM 44.6898 5.0926 121° Southeast 586 674 35,000  Level FlightAware ADS-B (KSAC)
Tue 03:53:11 AM 44.6379 5.2072 122° Southeast 585 673 35,000  Level FlightAware ADS-B (KSAC)
Tue 03:53:51 AM 44.5739 5.3300 126° Southeast 584 672 35,000  Level FlightAware ADS-B (KSAC)
Tue 03:54:31 AM 44.5052 5.4658 125° Southeast 583 671 35,000  Level FlightAware ADS-B (KSAC)
Tue 03:55:20 AM 44.4376 5.5976 126° Southeast 582 670 35,000  Level FlightAware ADS-B (KSAC)
Tue 03:56:11 AM 44.3500 5.7680 126° Southeast 580 667 35,000  Level FlightAware ADS-B
Tue 03:56:24 AM 44.3269 5.8104 127° Southeast 580 667 35,000  Level FlightAware ADS-B (KSAC)
Tue 03:57:01 AM 44.2694 5.9223 126° Southeast 580 667 35,000  Level FlightAware ADS-B (KSAC)
Tue 03:57:39 AM 44.2084 6.0397 126° Southeast 578 665 35,000  Level FlightAware ADS-B (KSAC)
Tue 03:58:10 AM 44.1594 6.1327 126° Southeast 577 664 35,000  Level FlightAware ADS-B (KSAC)
Tue 03:58:41 AM 44.1115 6.2225 127° Southeast 576 663 35,000  Level FlightAware ADS-B (KSAC)
Tue 03:59:19 AM 44.0522 6.3356 126° Southeast 574 661 35,000  Level FlightAware ADS-B (KSAC)
Tue 03:59:59 AM 43.9881 6.4568 126° Southeast 571 657 35,000  Level FlightAware ADS-B (KSAC)
Tue 04:00:40 AM 43.9245 6.5746 127° Southeast 569 655 35,000  Level FlightAware ADS-B (KSAC)
Tue 04:01:18 AM 43.8746 6.6680 127° Southeast 566 651 35,000  Level FlightAware ADS-B (KSAC)
Tue 04:01:50 AM 43.8174 6.7797 125° Southeast 564 649 35,000  Level FlightAware ADS-B (KSAC)
Tue 04:02:23 AM 43.7700 6.8826 122° Southeast 560 644 35,000  Level FlightAware ADS-B (KSAC)
Tue 04:02:59 AM 43.7216 6.9883 122° Southeast 560 644 35,000  Level FlightAware ADS-B (KSAC)
Tue 04:03:47 AM 43.6590 7.1320 121° Southeast 556 640 35,000  Level FlightAware ADS-B
Tue 04:04:22 AM 43.6120 7.2380 121° Southeast 557 641 35,000  Level FlightAware ADS-B
Tue 04:04:56 AM 43.5650 7.3470 121° Southeast 557 641 35,000  Level FlightAware ADS-B
Tue 04:05:25 AM 43.5270 7.4280 123° Southeast 556 640 35,000  Level FlightAware ADS-B
Tue 04:06:07 AM 43.4720 7.5510 122° Southeast 557 641 35,000 77 Level FlightAware ADS-B
Tue 04:06:43 AM 43.4200 7.6660 122° Southeast 558 642 35,100 609 Climbing FlightAware ADS-B
Tue 04:07:16 AM 43.3750 7.7620 123° Southeast 560 644 35,700 1,147 Climbing FlightAware ADS-B
Tue 04:07:51 AM 43.3280 7.8640 122° Southeast 559 643 36,400 1,099 Climbing FlightAware ADS-B
Tue 04:08:27 AM 43.2760 7.9780 122° Southeast 556 640 37,000 500 Climbing FlightAware ADS-B
Tue 04:09:03 AM 43.2270 8.0850 122° Southeast 554 638 37,000  Level FlightAware ADS-B
Tue 04:09:35 AM 43.1820 8.1830 122° Southeast 551 634 37,000  Level FlightAware ADS-B
Tue 04:10:10 AM 43.1350 8.2860 122° Southeast 548 631 37,000  Level FlightAware ADS-B
Tue 04:10:47 AM 43.0850 8.3940 122° Southeast 545 627 37,000  Level FlightAware ADS-B
Tue 04:11:29 AM 43.0330 8.5040 123° Southeast 542 624 37,000  Level FlightAware ADS-B
Tue 04:12:02 AM 42.9840 8.6100 122° Southeast 540 621 37,000  Level FlightAware ADS-B
Tue 04:12:40 AM 42.9360 8.7140 122° Southeast 538 619 37,000  Level FlightAware ADS-B
Tue 04:13:10 AM 42.8970 8.7960 123° Southeast 537 618 37,000  Level FlightAware ADS-B
Tue 04:13:57 AM 42.8310 8.9350 123° Southeast 534 615 37,000  Level FlightAware ADS-B
Tue 04:14:33 AM 42.7830 9.0370 123° Southeast 534 615 37,000  Level FlightAware ADS-B
Tue 04:15:05 AM 42.7390 9.1270 124° Southeast 533 613 37,000  Level FlightAware ADS-B
Tue 04:15:41 AM 42.6910 9.2290 123° Southeast 532 612 37,000  Level FlightAware ADS-B
Tue 04:16:17 AM 42.6430 9.3290 123° Southeast 531 611 37,000  Level FlightAware ADS-B
Tue 04:16:50 AM 42.5990 9.4240 122° Southeast 530 610 37,000  Level FlightAware ADS-B
Tue 04:17:26 AM 42.5590 9.5310 117° Southeast 528 608 37,000  Level FlightAware ADS-B
Tue 04:18:02 AM 42.5290 9.6390 111° Southeast 526 605 37,000  Level FlightAware ADS-B
Tue 04:18:35 AM 42.5020 9.7420 110° East 525 604 37,000  Level FlightAware ADS-B
Tue 04:19:09 AM 42.4750 9.8460 109° East 521 600 37,000  Level FlightAware ADS-B
Tue 04:19:47 AM 42.4440 9.9630 110° East 519 597 37,000  Level FlightAware ADS-B
Tue 04:20:20 AM 42.4160 10.0660 110° East 517 595 37,000  Level FlightAware ADS-B
Tue 04:20:56 AM 42.3880 10.1730 109° East 515 593 37,000  Level FlightAware ADS-B
Tue 04:21:28 AM 42.3620 10.2690 110° East 514 592 37,000  Level FlightAware ADS-B
Tue 04:22:06 AM 42.3300 10.3830 111° Southeast 513 590 37,000  Level FlightAware ADS-B
Tue 04:22:49 AM 42.2950 10.5120 110° East 511 588 37,000  Level FlightAware ADS-B
Tue 04:23:25 AM 42.2650 10.6200 111° Southeast 512 589 37,000  Level FlightAware ADS-B
Tue 04:23:56 AM 42.2390 10.7160 110° East 512 589 37,000  Level FlightAware ADS-B
Tue 04:24:32 AM 42.2090 10.8230 111° Southeast 512 589 37,000  Level FlightAware ADS-B
Tue 04:25:10 AM 42.1780 10.9340 111° Southeast 512 589 37,000  Level FlightAware ADS-B
Tue 04:25:42 AM 42.1510 11.0290 111° Southeast 513 590 37,000  Level FlightAware ADS-B
Tue 04:26:18 AM 42.1210 11.1370 110° East 513 590 37,000  Level FlightAware ADS-B
Tue 04:26:54 AM 42.0900 11.2440 111° Southeast 512 589 37,000  Level FlightAware ADS-B
Tue 04:27:26 AM 42.0610 11.3380 113° Southeast 509 586 37,000  Level FlightAware ADS-B
Tue 04:27:42 AM 42.0390 11.3800 125° Southeast 507 583 37,000  Level FlightAware ADS-B
Tue 04:28:18 AM 41.9800 11.4610 134° Southeast 507 583 37,000  Level FlightAware ADS-B
Tue 04:28:50 AM 41.9290 11.5340 133° Southeast 506 582 37,000  Level FlightAware ADS-B
Tue 04:29:28 AM 41.8690 11.6260 131° Southeast 507 583 37,000  Level FlightAware ADS-B
Tue 04:30:04 AM 41.8150 11.7100 131° Southeast 507 583 37,000  Level FlightAware ADS-B
Tue 04:30:36 AM 41.7640 11.7840 133° Southeast 505 581 37,000  Level FlightAware ADS-B
Tue 04:31:12 AM 41.7060 11.8660 133° Southeast 507 583 37,000  Level FlightAware ADS-B
Tue 04:31:48 AM 41.6470 11.9500 133° Southeast 507 583 37,000  Level FlightAware ADS-B
Tue 04:32:23 AM 41.5910 12.0270 134° Southeast 508 585 37,000  Level FlightAware ADS-B
Tue 04:32:56 AM 41.5370 12.1020 134° Southeast 509 586 37,000  Level FlightAware ADS-B
Tue 04:33:32 AM 41.4780 12.1830 134° Southeast 511 588 37,000  Level FlightAware ADS-B
Tue 04:34:08 AM 41.4180 12.2670 134° Southeast 512 589 37,000  Level FlightAware ADS-B
Tue 04:34:40 AM 41.3650 12.3400 134° Southeast 514 592 37,000  Level FlightAware ADS-B
Tue 04:35:16 AM 41.3070 12.4190 134° Southeast 514 592 37,000  Level FlightAware ADS-B
Tue 04:35:54 AM 41.2430 12.5080 134° Southeast 516 594 37,000  Level FlightAware ADS-B
Tue 04:36:26 AM 41.1900 12.5790 135° Southeast 516 594 37,000  Level FlightAware ADS-B
Tue 04:37:02 AM 41.1300 12.6630 133° Southeast 517 595 37,000  Level FlightAware ADS-B
Tue 04:37:38 AM 41.0690 12.7450 135° Southeast 516 594 37,000  Level FlightAware ADS-B
Tue 04:38:10 AM 41.0160 12.8170 134° Southeast 518 596 37,000  Level FlightAware ADS-B
Tue 04:38:45 AM 40.9590 12.8940 134° Southeast 519 597 37,000  Level FlightAware ADS-B
Tue 04:39:23 AM 40.8990 12.9900 130° Southeast 523 602 37,000  Level FlightAware ADS-B
Tue 04:39:59 AM 40.8540 13.0880 121° Southeast 524 603 37,000  Level FlightAware ADS-B
Tue 04:40:31 AM 40.8160 13.1740 120° Southeast 523 602 37,000  Level FlightAware ADS-B
Tue 04:41:07 AM 40.7730 13.2740 120° Southeast 522 601 37,000  Level FlightAware ADS-B
Tue 04:41:35 AM 40.7390 13.3520 120° Southeast 522 601 37,000  Level FlightAware ADS-B
Tue 04:42:11 AM 40.6950 13.4530 120° Southeast 520 598 37,000  Level FlightAware ADS-B
Tue 04:42:47 AM 40.6520 13.5510 120° Southeast 517 595 37,000  Level FlightAware ADS-B
Tue 04:43:19 AM 40.6140 13.6350 121° Southeast 515 593 37,000  Level FlightAware ADS-B
Tue 04:43:56 AM 40.5700 13.7350 120° Southeast 514 592 37,000  Level FlightAware ADS-B
Tue 04:44:31 AM 40.5280 13.8290 120° Southeast 512 589 37,000  Level FlightAware ADS-B
Tue 04:45:07 AM 40.4850 13.9260 120° Southeast 510 587 37,000  Level FlightAware ADS-B
Tue 04:45:39 AM 40.4460 14.0110 121° Southeast 509 586 37,000  Level FlightAware ADS-B
Tue 04:46:15 AM 40.4030 14.1090 120° Southeast 508 585 37,000  Level FlightAware ADS-B
Tue 04:46:51 AM 40.3600 14.2020 121° Southeast 507 583 37,000  Level FlightAware ADS-B
Tue 04:47:27 AM 40.3170 14.2970 121° Southeast 506 582 37,000  Level FlightAware ADS-B
Tue 04:47:59 AM 40.2780 14.3840 120° Southeast 506 582 37,000  Level FlightAware ADS-B
Tue 04:48:35 AM 40.2350 14.4790 121° Southeast 507 583 37,000  Level FlightAware ADS-B
Tue 04:49:11 AM 40.1920 14.5710 121° Southeast 509 586 37,000  Level FlightAware ADS-B
Tue 04:49:47 AM 40.1480 14.6690 120° Southeast 509 586 37,000  Level FlightAware ADS-B
Tue 04:50:20 AM 40.1090 14.7530 121° Southeast 510 587 37,000  Level FlightAware ADS-B
Tue 04:50:57 AM 40.0640 14.8510 121° Southeast 510 587 37,000  Level FlightAware ADS-B
Tue 04:51:32 AM 40.0210 14.9440 121° Southeast 510 587 37,000  Level FlightAware ADS-B
Tue 04:52:13 AM 39.9740 15.0460 121° Southeast 510 587 37,000  Level FlightAware ADS-B
Tue 04:52:46 AM 39.9340 15.1330 121° Southeast 509 586 37,000  Level FlightAware ADS-B
Tue 04:53:22 AM 39.8880 15.2300 122° Southeast 509 586 37,000  Level FlightAware ADS-B
Tue 04:53:58 AM 39.8450 15.3210 122° Southeast 510 587 37,000  Level FlightAware ADS-B
Tue 04:54:34 AM 39.8010 15.4160 121° Southeast 510 587 37,000  Level FlightAware ADS-B
Tue 04:55:10 AM 39.7560 15.5130 121° Southeast 512 589 37,000  Level FlightAware ADS-B
Tue 04:55:40 AM 39.7170 15.5940 122° Southeast 513 590 37,000  Level FlightAware ADS-B
Tue 04:56:18 AM 39.6690 15.6940 122° Southeast 515 593 37,000  Level FlightAware ADS-B
Tue 04:56:52 AM 39.6260 15.7860 121° Southeast 516 594 37,000  Level FlightAware ADS-B
Tue 04:57:30 AM 39.5790 15.8830 122° Southeast 518 596 37,000  Level FlightAware ADS-B
Tue 04:58:02 AM 39.5380 15.9680 122° Southeast 519 597 37,000  Level FlightAware ADS-B
Tue 04:58:38 AM 39.4930 16.0630 122° Southeast 520 598 37,000  Level FlightAware ADS-B
Tue 04:59:06 AM 39.4650 16.1430 114° Southeast 525 604 37,000  Level FlightAware ADS-B
Tue 04:59:42 AM 39.4340 16.2480 111° Southeast 524 603 37,000  Level FlightAware ADS-B
Tue 05:00:18 AM 39.4020 16.3560 111° Southeast 526 605 37,000  Level FlightAware ADS-B
Tue 05:00:50 AM 39.3730 16.4500 112° Southeast 526 605 37,000  Level FlightAware ADS-B
Tue 05:01:28 AM 39.3360 16.5600 113° Southeast 526 605 37,000  Level FlightAware ADS-B
Tue 05:02:00 AM 39.3060 16.6490 114° Southeast 524 603 37,000  Level FlightAware ADS-B
Tue 05:02:37 AM 39.2710 16.7550 113° Southeast 524 603 37,000  Level FlightAware ADS-B
Tue 05:03:13 AM 39.2360 16.8590 113° Southeast 526 605 37,000  Level FlightAware ADS-B
Tue 05:03:45 AM 39.2050 16.9510 113° Southeast 525 604 37,000  Level FlightAware ADS-B
Tue 05:04:21 AM 39.1710 17.0540 113° Southeast 525 604 37,000  Level FlightAware ADS-B
Tue 05:04:57 AM 39.1350 17.1600 114° Southeast 525 604 37,000  Level FlightAware ADS-B
Tue 05:05:29 AM 39.1050 17.2490 113° Southeast 524 603 37,000  Level FlightAware ADS-B
Tue 05:06:05 AM 39.0710 17.3560 112° Southeast 524 603 37,000  Level FlightAware ADS-B
Tue 05:06:43 AM 39.0360 17.4650 112° Southeast 522 601 37,000  Level FlightAware ADS-B
Tue 05:07:15 AM 39.0060 17.5560 113° Southeast 522 601 37,000  Level FlightAware ADS-B
Tue 05:07:51 AM 38.9720 17.6590 113° Southeast 521 600 37,000  Level FlightAware ADS-B
Tue 05:08:27 AM 38.9380 17.7610 113° Southeast 520 598 37,000  Level FlightAware ADS-B
Tue 05:09:03 AM 38.9040 17.8630 113° Southeast 517 595 37,000  Level FlightAware ADS-B
Tue 05:09:35 AM 38.8750 17.9510 113° Southeast 516 594 37,000  Level FlightAware ADS-B
Tue 05:10:11 AM 38.8400 18.0540 114° Southeast 515 593 37,000  Level FlightAware ADS-B
Tue 05:10:45 AM 38.8090 18.1470 113° Southeast 513 590 37,000  Level FlightAware ADS-B
Tue 05:11:07 AM 38.7880 18.2110 113° Southeast 513 590 37,000  Level FlightAware ADS-B
Tue 05:11:59 AM 38.7400 18.3530 113° Southeast 511 588 37,000  Level FlightAware ADS-B
Tue 05:12:35 AM 38.7050 18.4520 114° Southeast 510 587 37,000  Level FlightAware ADS-B
Tue 05:13:09 AM 38.6730 18.5490 113° Southeast 508 585 37,000  Level FlightAware ADS-B
Tue 05:13:45 AM 38.6400 18.6460 114° Southeast 508 585 37,000  Level FlightAware ADS-B
Tue 05:14:17 AM 38.6090 18.7360 114° Southeast 508 585 37,000  Level FlightAware ADS-B
Tue 05:14:53 AM 38.5760 18.8360 113° Southeast 509 586 37,000  Level FlightAware ADS-B
Tue 05:15:24 AM 38.5580 18.8980 110° East 508 585 37,000  Level FlightAware ADS-B
Tue 05:16:11 AM 38.5140 19.0470 111° Southeast 915 1053 37,000  Level FlightAware ADS-B
Tue 05:17:30 AM 38.4550 19.2460 111° Southeast 513 590 37,000  Level FlightAware ADS-B
Tue 05:18:11 AM 38.4230 19.3560 110° East 514 592 37,000  Level FlightAware ADS-B
Tue 05:18:51 AM 38.3870 19.4750 111° Southeast 514 592 37,000  Level FlightAware ADS-B
Tue 05:19:23 AM 38.3600 19.5620 112° Southeast 514 592 37,000  Level FlightAware ADS-B
Tue 05:20:05 AM 38.3230 19.6860 111° Southeast 513 590 37,000  Level FlightAware ADS-B
Tue 05:20:44 AM 38.2910 19.7940 111° Southeast 513 590 37,000  Level FlightAware ADS-B
Tue 05:21:16 AM 38.2630 19.8840 112° Southeast 513 590 37,000  Level FlightAware ADS-B
Tue 05:21:48 AM 38.2340 19.9790 111° Southeast 512 589 37,000  Level FlightAware ADS-B
Tue 05:22:25 AM 38.1930 20.1110 112° Southeast 512 589 37,000  Level FlightAware ADS-B
Tue 05:23:19 AM 38.1510 20.2480 111° Southeast 512 589 37,000  Level FlightAware ADS-B
Tue 05:24:12 AM 38.1050 20.3960 112° Southeast 511 588 37,000  Level FlightAware ADS-B
Tue 05:24:54 AM 38.0650 20.5240 112° Southeast 510 587 37,000  Level FlightAware ADS-B
Tue 05:25:32 AM 38.0380 20.6150 111° Southeast 510 587 37,000  Level FlightAware ADS-B
Tue 05:26:07 AM 38.0030 20.7220 113° Southeast 507 583 37,000  Level FlightAware ADS-B
Tue 05:26:37 AM 37.9770 20.8020 112° Southeast 507 583 37,000  Level FlightAware ADS-B
Tue 05:27:12 AM 37.9460 20.9050 111° Southeast 506 582 37,000  Level FlightAware ADS-B
Tue 05:27:52 AM 37.9090 21.0180 113° Southeast 509 586 37,000  Level FlightAware ADS-B
Tue 05:28:31 AM 37.8750 21.1260 112° Southeast 509 586 37,000  Level FlightAware ADS-B
Tue 05:29:10 AM 37.8420 21.2310 112° Southeast 511 588 37,000  Level FlightAware ADS-B
Tue 05:29:40 AM 37.8130 21.3170 113° Southeast 513 590 37,000  Level FlightAware ADS-B
Tue 05:30:17 AM 37.7800 21.4200 112° Southeast 515 593 37,000  Level FlightAware ADS-B
Tue 05:30:54 AM 37.7470 21.5230 112° Southeast 517 595 37,000  Level FlightAware ADS-B
Tue 05:31:24 AM 37.7210 21.6040 112° Southeast 518 596 37,000  Level FlightAware ADS-B
Tue 05:32:01 AM 37.6860 21.7140 112° Southeast 520 598 37,000  Level FlightAware ADS-B
Tue 05:32:34 AM 37.6590 21.7950 113° Southeast 521 600 37,000  Level FlightAware ADS-B
Tue 05:33:12 AM 37.6210 21.9100 113° Southeast 522 601 37,000  Level FlightAware ADS-B
Tue 05:33:50 AM 37.5860 22.0170 112° Southeast 523 602 37,000  Level FlightAware ADS-B
Tue 05:34:20 AM 37.5580 22.1020 113° Southeast 525 604 37,000  Level FlightAware ADS-B
Tue 05:34:57 AM 37.5230 22.2060 113° Southeast 525 604 37,000  Level FlightAware ADS-B
Tue 05:35:31 AM 37.4910 22.3050 112° Southeast 525 604 37,000  Level FlightAware ADS-B
Tue 05:36:10 AM 37.4560 22.4120 112° Southeast 526 605 37,000  Level FlightAware ADS-B
Tue 05:36:40 AM 37.4260 22.4990 113° Southeast 526 605 37,000  Level FlightAware ADS-B
Tue 05:37:19 AM 37.3900 22.6090 112° Southeast 526 605 37,000  Level FlightAware ADS-B
Tue 05:37:54 AM 37.3570 22.7070 113° Southeast 525 604 37,000  Level FlightAware ADS-B
Tue 05:38:27 AM 37.3260 22.7970 113° Southeast 524 603 37,000  Level FlightAware ADS-B
Tue 05:39:04 AM 37.2910 22.9010 113° Southeast 525 604 37,000  Level FlightAware ADS-B
Tue 05:39:37 AM 37.2610 22.9900 113° Southeast 524 603 37,000  Level FlightAware ADS-B
Tue 05:40:14 AM 37.2240 23.0960 114° Southeast 521 600 37,000  Level FlightAware ADS-B
Tue 05:40:47 AM 37.1930 23.1880 113° Southeast 520 598 37,000  Level FlightAware ADS-B
Tue 05:41:23 AM 37.1580 23.2900 113° Southeast 518 596 37,000  Level FlightAware ADS-B
Tue 05:41:58 AM 37.1250 23.3860 113° Southeast 518 596 37,000  Level FlightAware ADS-B
Tue 05:42:32 AM 37.0920 23.4800 114° Southeast 517 595 37,000  Level FlightAware ADS-B
Tue 05:43:07 AM 37.0590 23.5760 113° Southeast 516 594 37,000  Level FlightAware ADS-B
Tue 05:43:42 AM 37.0260 23.6720 113° Southeast 515 593 37,000  Level FlightAware ADS-B
Tue 05:44:17 AM 36.9930 23.7670 113° Southeast 514 592 37,000  Level FlightAware ADS-B
Tue 05:44:52 AM 36.9600 23.8600 114° Southeast 514 592 37,000  Level FlightAware ADS-B
Tue 05:45:29 AM 36.9250 23.9580 114° Southeast 514 592 37,000  Level FlightAware ADS-B
Tue 05:46:01 AM 36.8930 24.0500 113° Southeast 515 593 37,000  Level FlightAware ADS-B
Tue 05:46:36 AM 36.8610 24.1430 113° Southeast 515 593 37,000  Level FlightAware ADS-B
Tue 05:47:13 AM 36.8250 24.2440 114° Southeast 517 595 37,000  Level FlightAware ADS-B
Tue 05:47:49 AM 36.7900 24.3420 114° Southeast 517 595 37,000  Level FlightAware ADS-B
Tue 05:48:22 AM 36.7580 24.4290 115° Southeast 517 595 37,000  Level FlightAware ADS-B
Tue 05:49:05 AM 36.7150 24.5520 114° Southeast 517 595 37,000  Level FlightAware ADS-B
Tue 05:49:41 AM 36.6800 24.6470 115° Southeast 518 596 37,000  Level FlightAware ADS-B
Tue 05:50:13 AM 36.6490 24.7340 114° Southeast 518 596 37,000  Level FlightAware ADS-B
Tue 05:50:49 AM 36.6130 24.8320 115° Southeast 518 596 37,000  Level FlightAware ADS-B
Tue 05:51:25 AM 36.5780 24.9320 114° Southeast 517 595 37,000  Level FlightAware ADS-B
Tue 05:52:01 AM 36.5420 25.0270 115° Southeast 517 595 37,000  Level FlightAware ADS-B
Tue 05:52:33 AM 36.5110 25.1160 113° Southeast 516 594 37,000  Level FlightAware ADS-B
Tue 05:53:11 AM 36.4740 25.2160 115° Southeast 516 594 37,000  Level FlightAware ADS-B
Tue 05:53:44 AM 36.4410 25.3050 115° Southeast 516 594 37,000  Level FlightAware ADS-B
Tue 05:54:21 AM 36.4050 25.4050 114° Southeast 515 593 37,000  Level FlightAware ADS-B
Tue 05:54:57 AM 36.3680 25.5040 115° Southeast 513 590 37,000  Level FlightAware ADS-B
Tue 05:55:29 AM 36.3370 25.5890 114° Southeast 512 589 37,000  Level FlightAware ADS-B
Tue 05:56:05 AM 36.3010 25.6830 115° Southeast 511 588 37,000  Level FlightAware ADS-B
Tue 05:56:41 AM 36.2660 25.7790 114° Southeast 511 588 37,000  Level FlightAware ADS-B
Tue 05:57:13 AM 36.2340 25.8660 114° Southeast 513 590 37,000  Level FlightAware ADS-B
Tue 05:57:49 AM 36.1970 25.9620 116° Southeast 513 590 37,000  Level FlightAware ADS-B
Tue 05:58:25 AM 36.1620 26.0580 114° Southeast 512 589 37,000  Level FlightAware ADS-B
Tue 05:59:01 AM 36.1250 26.1540 115° Southeast 512 589 37,000  Level FlightAware ADS-B
Tue 05:59:33 AM 36.0940 26.2360 115° Southeast 512 589 37,000  Level FlightAware ADS-B
Tue 06:00:05 AM 36.0620 26.3210 115° Southeast 512 589 37,000  Level FlightAware ADS-B
Tue 06:00:45 AM 36.0210 26.4270 116° Southeast 512 589 37,000  Level FlightAware ADS-B
Tue 06:01:21 AM 35.9850 26.5220 115° Southeast 511 588 37,000  Level FlightAware ADS-B
Tue 06:01:55 AM 35.9500 26.6140 115° Southeast 510 587 37,000  Level FlightAware ADS-B
Tue 06:02:31 AM 35.9150 26.7060 115° Southeast 509 586 37,000  Level FlightAware ADS-B
Tue 06:03:24 AM 35.8660 26.8330 115° Southeast 508 585 37,000  Level FlightAware ADS-B
Tue 06:04:00 AM 35.8360 26.9130 115° Southeast 508 585 37,000  Level FlightAware ADS-B
Tue 06:04:36 AM 35.8050 26.9940 115° Southeast 508 585 37,000  Level FlightAware ADS-B
Tue 06:05:11 AM 35.7520 27.1270 116° Southeast 509 586 37,000  Level FlightAware ADS-B
Tue 06:05:47 AM 35.7160 27.2210 115° Southeast 509 586 37,000  Level FlightAware ADS-B
Tue 06:06:23 AM 35.6790 27.3130 116° Southeast 509 586 37,000  Level FlightAware ADS-B
Tue 06:06:59 AM 35.6420 27.4090 115° Southeast 509 586 37,000  Level FlightAware ADS-B
Tue 06:07:33 AM 35.6070 27.4980 116° Southeast 508 585 37,000  Level FlightAware ADS-B
Tue 06:08:05 AM 35.5750 27.5780 116° Southeast 508 585 37,000  Level FlightAware ADS-B
Tue 06:08:42 AM 35.5370 27.6740 116° Southeast 508 585 37,000  Level FlightAware ADS-B
Tue 06:09:17 AM 35.5010 27.7650 116° Southeast 509 586 37,000  Level FlightAware ADS-B
Tue 06:09:49 AM 35.4690 27.8460 116° Southeast 510 587 37,000  Level FlightAware ADS-B
Tue 06:10:25 AM 35.4310 27.9420 116° Southeast 510 587 37,000  Level FlightAware ADS-B
Tue 06:11:01 AM 35.3920 28.0380 116° Southeast 510 587 37,000  Level FlightAware ADS-B
Tue 06:11:37 AM 35.3550 28.1310 116° Southeast 509 586 37,000  Level FlightAware ADS-B
Tue 06:12:09 AM 35.3230 28.2110 116° Southeast 509 586 37,000  Level FlightAware ADS-B
Tue 06:12:46 AM 35.2860 28.3040 116° Southeast 508 585 37,000  Level FlightAware ADS-B
Tue 06:13:21 AM 35.2470 28.3970 117° Southeast 508 585 37,000  Level FlightAware ADS-B
Tue 06:13:55 AM 35.2130 28.4820 116° Southeast 508 585 37,000  Level FlightAware ADS-B
Tue 06:14:31 AM 35.1740 28.5800 116° Southeast 508 585 37,000  Level FlightAware ADS-B
Tue 06:15:05 AM 35.1390 28.6650 117° Southeast 508 585 37,000  Level FlightAware ADS-B
Tue 06:15:46 AM 35.1000 28.7600 117° Southeast 509 586 37,000  Level FlightAware ADS-B
Tue 06:16:19 AM 35.0620 28.8520 117° Southeast 509 586 37,000  Level FlightAware ADS-B
Tue 06:16:59 AM 35.0190 28.9580 116° Southeast 510 587 37,000  Level FlightAware ADS-B
Tue 06:17:31 AM 34.9850 29.0400 117° Southeast 510 587 37,000  Level FlightAware ADS-B
Tue 06:18:06 AM 34.9480 29.1300 117° Southeast 511 588 37,000  Level FlightAware ADS-B
Tue 06:18:45 AM 34.9050 29.2330 117° Southeast 511 588 37,000  Level FlightAware ADS-B
Tue 06:19:32 AM 34.8580 29.3460 117° Southeast 509 586 37,000  Level FlightAware ADS-B
Tue 06:20:03 AM 34.8220 29.4340 116° Southeast 514 592 37,000  Level FlightAware ADS-B
Tue 06:20:42 AM 34.7800 29.5340 117° Southeast 514 592 37,000  Level FlightAware ADS-B
Tue 06:21:18 AM 34.7410 29.6250 118° Southeast 512 589 37,000  Level FlightAware ADS-B
Tue 06:21:57 AM 34.6990 29.7250 117° Southeast 512 589 37,000  Level FlightAware ADS-B
Tue 06:22:33 AM 34.6600 29.8180 117° Southeast 513 590 37,000  Level FlightAware ADS-B
Tue 06:23:16 AM 34.6190 29.9190 116° Southeast 513 590 37,000  Level FlightAware ADS-B
Tue 06:23:52 AM 34.5870 29.9980 116° Southeast 513 590 37,000  Level FlightAware ADS-B
Tue 06:24:23 AM 34.5400 30.0920 121° Southeast 515 593 37,000  Level FlightAware ADS-B
Tue 06:24:59 AM 34.4970 30.1810 120° Southeast 511 588 37,000  Level FlightAware ADS-B
Tue 06:25:34 AM 34.4510 30.2730 121° Southeast 515 593 37,000  Level FlightAware ADS-B
Tue 06:26:05 AM 34.4140 30.3480 121° Southeast 516 594 37,000  Level FlightAware ADS-B
Tue 06:26:45 AM 34.3640 30.4530 120° Southeast 518 596 37,000  Level FlightAware ADS-B
Tue 06:27:20 AM 34.3220 30.5400 120° Southeast 518 596 37,000 -600 Level FlightAware ADS-B
Tue 06:27:55 AM 34.2790 30.6280 121° Southeast 517 595 36,300 -1,099 Descending FlightAware ADS-B
Tue 06:28:31 AM 34.2360 30.7170 120° Southeast 515 593 35,700 -1,014 Descending FlightAware ADS-B
Tue 06:29:06 AM 34.1930 30.8040 121° Southeast 511 588 35,100 -1,455 Descending FlightAware ADS-B
Tue 06:29:37 AM 34.1580 30.8770 120° Southeast 511 588 34,100 -1,739 Descending FlightAware ADS-B
Tue 06:30:15 AM 34.1150 30.9630 121° Southeast 511 588 33,100 -930 Descending FlightAware ADS-B
Tue 06:30:48 AM 34.0720 31.0520 120° Southeast 513 590 33,000 -83 Descending FlightAware ADS-B
Tue 06:31:27 AM 34.0220 31.1520 121° Southeast 512 589 33,000  Level FlightAware ADS-B
Tue 06:31:58 AM 33.9880 31.2210 121° Southeast 512 589 33,000  Level FlightAware ADS-B
Tue 06:32:32 AM 33.9440 31.3090 121° Southeast 513 590 33,000  Level FlightAware ADS-B
Tue 06:33:13 AM 33.8960 31.4070 121° Southeast 508 585 33,000  Level FlightAware ADS-B
Tue 06:33:47 AM 33.8530 31.4930 121° Southeast 508 585 33,000  Level FlightAware ADS-B
Tue 06:34:18 AM 33.8180 31.5630 121° Southeast 508 585 33,000  Level FlightAware ADS-B
Tue 06:34:57 AM 33.7680 31.6630 121° Southeast 508 585 33,000  Level FlightAware ADS-B
Tue 06:35:33 AM 33.7250 31.7460 122° Southeast 509 586 33,000  Level FlightAware ADS-B
Tue 06:36:07 AM 33.6830 31.8320 120° Southeast 510 587 33,000  Level FlightAware ADS-B
Tue 06:36:38 AM 33.6440 31.9080 122° Southeast 511 588 33,000  Level FlightAware ADS-B
Tue 06:37:14 AM 33.6020 31.9930 121° Southeast 511 588 33,000  Level FlightAware ADS-B
Tue 06:37:48 AM 33.5560 32.0810 122° Southeast 512 589 33,000  Level FlightAware ADS-B
Tue 06:38:29 AM 33.5060 32.1790 121° Southeast 513 590 33,000  Level FlightAware ADS-B
Tue 06:38:59 AM 33.4700 32.2500 121° Southeast 514 592 33,000  Level FlightAware ADS-B
Tue 06:39:34 AM 33.4250 32.3380 121° Southeast 514 592 33,000  Level FlightAware ADS-B
Tue 06:40:11 AM 33.3810 32.4240 121° Southeast 514 592 33,000 -83 Level FlightAware ADS-B
Tue 06:40:46 AM 33.3360 32.5120 121° Southeast 513 590 32,900 -522 Descending FlightAware ADS-B
Tue 06:41:20 AM 33.2930 32.5970 121° Southeast 506 582 32,400 -1,130 Descending FlightAware ADS-B
Tue 06:41:55 AM 33.2500 32.6800 122° Southeast 502 578 31,600 -1,217 Descending FlightAware ADS-B
Tue 06:42:29 AM 33.2090 32.7600 121° Southeast 498 573 31,000 -493 Descending FlightAware ADS-B
Tue 06:43:08 AM 33.1590 32.8570 122° Southeast 506 582 31,000  Level FlightAware ADS-B
Tue 06:43:42 AM 33.1200 32.9310 122° Southeast 508 585 31,000 -439 Level FlightAware ADS-B
Tue 06:44:30 AM 33.0610 33.0460 121° Southeast 506 582 30,400 -1,012 Descending FlightAware ADS-B
Tue 06:45:05 AM 33.0170 33.1340 121° Southeast 501 577 29,600 -1,538 Descending FlightAware ADS-B
Tue 06:45:48 AM 32.9660 33.2310 122° Southeast 489 563 28,400 -1,792 Descending FlightAware ADS-B
Tue 06:46:22 AM 32.9270 33.3110 120° Southeast 476 548 27,300 -2,328 Descending FlightAware ADS-B
Tue 06:46:55 AM 32.8880 33.3860 122° Southeast 464 534 25,800 -2,559 Descending FlightAware ADS-B
Tue 06:47:30 AM 32.8500 33.4590 122° Southeast 454 522 24,400 -2,535 Descending FlightAware ADS-B
Tue 06:48:06 AM 32.8110 33.5350 121° Southeast 445 512 22,800 -2,917 Descending FlightAware ADS-B
Tue 06:48:42 AM 32.7720 33.6090 122° Southeast 453 521 20,900 -2,829 Descending FlightAware ADS-B
Tue 06:49:16 AM 32.7330 33.6850 121° Southeast 448 516 19,500 -2,382 Descending FlightAware ADS-B
Tue 06:49:50 AM 32.6960 33.7550 122° Southeast 441 507 18,200 -2,167 Descending FlightAware ADS-B
Tue 06:50:28 AM 32.6560 33.8330 121° Southeast 434 499 16,900 -2,027 Descending FlightAware ADS-B
Tue 06:51:04 AM 32.6200 33.9010 122° Southeast 428 493 15,700 -2,000 Descending FlightAware ADS-B
Tue 06:51:37 AM 32.5860 33.9670 121° Southeast 422 486 14,600 -1,941 Descending FlightAware ADS-B
Tue 06:52:12 AM 32.5490 34.0390 121° Southeast 414 476 13,500 -2,028 Descending FlightAware ADS-B
Tue 06:52:48 AM 32.5130 34.1050 123° Southeast 403 464 12,200 -1,833 Descending FlightAware ADS-B
Tue 06:53:24 AM 32.4760 34.1700 124° Southeast 377 434 11,300 -1,433 Descending FlightAware ADS-B
Tue 06:53:55 AM 32.4390 34.2150 134° Southeast 353 406 10,600 -1,235 Descending FlightAware ADS-B
Tue 06:54:32 AM 32.3990 34.2630 135° Southeast 314 361 9,900 -1,053 Descending FlightAware ADS-B
Tue 06:54:52 AM 32.3790 34.2850 137° Southeast 299 344 9,600 -1,000 Descending FlightAware ADS-B
Tue 06:55:08 AM 32.3640 34.3030 135° Southeast 289 333 9,300 -1,029 Descending FlightAware ADS-B
Tue 06:55:27 AM 32.3470 34.3230 135° Southeast 287 330 9,000 -1,077 Descending FlightAware ADS-B
Tue 06:55:47 AM 32.3290 34.3450 134° Southeast 283 326 8,600 -1,227 Descending FlightAware ADS-B
Tue 06:56:11 AM 32.3060 34.3710 136° Southeast 278 320 8,100 -1,227 Descending FlightAware ADS-B
Tue 06:56:31 AM 32.2880 34.3910 137° Southeast 276 318 7,700 -1,350 Descending FlightAware ADS-B
Tue 06:56:51 AM 32.2710 34.4120 134° Southeast 274 315 7,200 -1,371 Descending FlightAware ADS-B
Tue 06:57:06 AM 32.2560 34.4300 135° Southeast 273 314 6,900 -1,200 Descending FlightAware ADS-B
Tue 06:57:26 AM 32.2390 34.4500 135° Southeast 272 313 6,500 -1,161 Descending FlightAware ADS-B
Tue 06:57:37 AM 32.2310 34.4600 133° Southeast 270 311 6,300 -1,167 Descending FlightAware ADS-B
Tue 06:58:02 AM 32.2140 34.4910 123° Southeast 267 307 5,800 -621 Descending FlightAware ADS-B
Tue 06:58:35 AM 32.1970 34.5240 121° Southeast 266 306 5,700 -771 Descending FlightAware ADS-B
Tue 06:59:12 AM 32.1720 34.5730 121° Southeast 260 299 4,900 -636 Descending FlightAware ADS-B
Tue 06:59:41 AM 32.1490 34.6160 122° Southeast 259 298 5,000 122 Climbing FlightAware ADS-B
Tue 07:00:01 AM 32.1360 34.6400 123° Southeast 259 298 5,000  Level FlightAware ADS-B
Tue 07:00:22 AM 32.1240 34.6620 123° Southeast 260 299 5,000  Level FlightAware ADS-B
Tue 07:00:57 AM 32.1050 34.6960 123° Southeast 260 299 5,000  Level FlightAware ADS-B
Tue 07:01:33 AM 32.1060 34.6940 301° West 241 277 5,000  Level FlightAware ADS-B
Tue 07:02:07 AM 32.1190 34.6700 303° West 213 245 5,000 -122 Level FlightAware ADS-B
Tue 07:02:22 AM 32.0510 34.7860 125° Southeast 211 243 4,900 -240 Descending FlightAware ADS-B
Tue 07:02:57 AM 32.0280 34.8120 136° Southeast 213 245 4,800 -490 Descending FlightAware ADS-B
Tue 07:03:11 AM 32.0440 34.7940 316° Northwest 215 247 4,500 -882 Descending FlightAware ADS-B
Tue 07:03:31 AM 32.0010 34.8420 137° Southeast 207 238 4,300 -900 Descending FlightAware ADS-B
Tue 07:03:51 AM 31.9870 34.8590 134° Southeast 204 235 3,900 -522 Descending FlightAware ADS-B
Tue 07:04:17 AM 31.9720 34.8760 136° Southeast 204 235 3,900 -1,548 Level FlightAware ADS-B
Tue 07:04:22 AM 31.9870 34.8590 316° Northwest 204 235 3,100 -3,857 Descending FlightAware ADS-B
Tue 07:04:31 AM 31.9730 34.8950 115° Southeast 199 229 3,000 -857 Descending FlightAware ADS-B
Tue 07:04:57 AM 31.9790 34.9210 75° East 200 230 2,600 -1,043 Descending FlightAware ADS-B
Tue 07:05:17 AM 31.9840 34.9440 76° East 199 229 2,200 -1,200 Descending FlightAware ADS-B
Tue 07:05:37 AM 31.9940 34.9600 54° Northeast 177 204 1,800 -1,029 Descending FlightAware ADS-B
Tue 07:05:52 AM 32.0060 34.9630 12° North 169 194 1,600 -857 Descending FlightAware ADS-B
Tue 07:06:12 AM 32.0180 34.9610 352° North 147 169 1,300 -800 Descending FlightAware ADS-B
Tue 07:06:22 AM 32.0220 34.9580 328° Northwest 144 166 1,200 -720 Descending FlightAware ADS-B
Tue 07:06:37 AM 32.0260 34.9480 295° West 142 163 1,000 -857 Descending FlightAware ADS-B
Tue 07:06:57 AM 32.0230 34.9310 258° West 147 169 700 -750 Descending FlightAware ADS-B
Tue 07:07:17 AM 32.0210 34.9140 262° West 146 168 500 -261 Descending FlightAware ADS-B
Tue 07:07:43 AM 32.0180 34.8960 259° West 146 168 500  Level FlightAware ADS-B
Tue 07:10:00 AM 32.0095 34.8769 125° Southeast  Level Estimated
Tue 07:11:00 AM 32.0095 34.8769 125° Southeast  Level Estimated

Login

Don't have an account? Register now (free) for customized features, flight alerts, and more!